createdAt,value
2019-03-23T08:19:50.291Z,22.91
2019-03-23T08:21:51.880Z,22.94
2019-03-23T08:23:53.488Z,22.85
2019-03-23T08:25:55.660Z,22.81
2019-03-23T08:27:57.268Z,22.78
2019-03-23T08:29:58.892Z,22.77
2019-03-23T08:32:00.548Z,22.77
2019-03-23T08:34:02.157Z,22.76
2019-03-23T08:36:03.781Z,22.74
2019-03-23T08:38:05.383Z,22.72
2019-03-23T08:40:07.004Z,22.69
2019-03-23T08:42:08.588Z,22.79
2019-03-23T08:44:10.173Z,22.66
2019-03-23T08:46:11.811Z,22.73
2019-03-23T08:48:13.400Z,23.20
2019-03-23T08:50:15.015Z,23.15
2019-03-23T08:52:16.601Z,22.97
2019-03-23T08:54:18.249Z,23.05
2019-03-23T08:56:19.859Z,23.11
2019-03-23T08:58:21.462Z,23.06
2019-03-23T09:00:23.048Z,22.62
2019-03-23T09:02:24.657Z,22.28
2019-03-23T09:04:26.254Z,22.19
2019-03-23T09:06:27.868Z,22.11
2019-03-23T09:08:29.459Z,22.14
2019-03-23T09:10:31.064Z,22.28
2019-03-23T09:12:32.651Z,22.46
2019-03-23T09:14:34.227Z,22.61
2019-03-23T09:16:35.818Z,22.74
2019-03-23T09:18:37.463Z,22.80
2019-03-23T09:20:39.076Z,22.89
2019-03-23T09:22:40.673Z,22.75
2019-03-23T09:24:42.290Z,22.46
2019-03-23T09:26:43.926Z,22.42
2019-03-23T09:28:45.578Z,22.42
2019-03-23T09:30:47.188Z,22.39
2019-03-23T09:32:48.837Z,22.15
2019-03-23T09:34:50.445Z,22.38
2019-03-23T09:36:52.062Z,22.59
2019-03-23T09:38:53.671Z,22.70
2019-03-23T09:40:55.280Z,22.81
2019-03-23T09:42:56.925Z,22.87
2019-03-23T09:44:58.527Z,22.88
2019-03-23T09:47:00.133Z,22.91
2019-03-23T09:49:01.729Z,22.91
2019-03-23T09:51:03.339Z,22.93
2019-03-23T09:53:04.968Z,22.91
2019-03-23T09:55:06.581Z,22.90
2019-03-23T09:57:08.168Z,22.91
2019-03-23T09:59:09.779Z,22.92
2019-03-23T10:01:11.399Z,22.91
2019-03-23T10:03:13.051Z,22.91
2019-03-23T10:05:14.661Z,22.92
2019-03-23T10:07:16.262Z,22.97
2019-03-23T10:09:17.896Z,23.48
2019-03-23T10:13:33.635Z,24.20
2019-03-23T10:15:35.251Z,24.36
2019-03-23T10:19:50.904Z,23.61
2019-03-23T10:21:52.524Z,23.97
2019-03-23T10:23:54.666Z,24.11
2019-03-23T10:25:56.165Z,24.26
2019-03-23T10:27:57.771Z,24.47
2019-03-23T10:29:59.357Z,24.16
2019-03-23T10:32:00.991Z,24.31
2019-03-23T10:34:02.612Z,24.45
2019-03-23T10:36:04.196Z,24.23
2019-03-23T10:38:05.814Z,24.13
2019-03-23T10:40:07.595Z,24.10
2019-03-23T10:42:09.007Z,24.21
2019-03-23T10:44:10.595Z,24.60
2019-03-23T10:46:12.180Z,24.49
2019-03-23T10:48:13.754Z,24.31
2019-03-23T10:50:15.336Z,23.83
2019-03-23T10:52:16.928Z,23.70
2019-03-23T10:54:18.507Z,23.88
2019-03-23T10:56:20.152Z,23.83
2019-03-23T10:58:21.772Z,23.59
2019-03-23T11:00:23.353Z,23.46
2019-03-23T11:02:24.935Z,23.37
2019-03-23T11:04:26.516Z,23.33
2019-03-23T11:06:28.151Z,23.26
2019-03-23T11:08:29.769Z,23.24
2019-03-23T11:10:31.388Z,23.22
2019-03-23T11:12:32.991Z,23.13
2019-03-23T11:14:34.580Z,23.08
2019-03-23T11:16:36.215Z,23.07
2019-03-23T11:18:37.938Z,23.08
2019-03-23T11:20:39.470Z,23.07
2019-03-23T11:22:41.071Z,23.06
2019-03-23T11:24:42.646Z,23.04
2019-03-23T11:26:44.296Z,23.04
2019-03-23T11:28:45.949Z,22.98
2019-03-23T11:30:47.522Z,22.93
2019-03-23T11:32:49.145Z,22.96
2019-03-23T11:34:50.735Z,22.94
2019-03-23T11:36:52.339Z,23.07
2019-03-23T11:38:53.962Z,23.64
2019-03-23T11:40:55.568Z,23.93
2019-03-23T11:42:57.202Z,24.03
2019-03-23T11:44:58.834Z,24.09
2019-03-23T11:47:00.427Z,24.11
2019-03-23T11:49:02.062Z,23.79
2019-03-23T11:51:03.679Z,23.63
2019-03-23T11:53:05.254Z,23.60
2019-03-23T11:55:06.871Z,23.77
2019-03-23T11:57:08.466Z,23.95
2019-03-23T11:59:10.074Z,24.11
2019-03-23T12:01:11.679Z,24.08
2019-03-23T12:03:13.285Z,23.99
2019-03-23T12:05:14.895Z,23.94
2019-03-23T12:07:16.493Z,23.82
2019-03-23T12:09:18.139Z,23.76
2019-03-23T12:11:19.848Z,23.76
2019-03-23T12:13:21.473Z,23.72
2019-03-23T12:15:23.084Z,23.69
2019-03-23T12:17:24.820Z,23.62
2019-03-23T12:19:26.426Z,23.62
2019-03-23T12:21:28.035Z,23.61
2019-03-23T12:23:29.692Z,23.61
2019-03-23T12:25:31.401Z,23.61
2019-03-23T12:27:33.399Z,23.64
2019-03-23T12:29:34.970Z,23.60
2019-03-23T12:31:36.555Z,23.56
2019-03-23T12:33:38.158Z,23.54
2019-03-23T12:35:39.749Z,23.51
2019-03-23T12:37:41.354Z,23.53
2019-03-23T12:39:42.935Z,23.53
2019-03-23T12:41:44.535Z,23.52
2019-03-23T12:43:46.173Z,23.49
2019-03-23T12:45:47.760Z,23.48
2019-03-23T12:47:49.427Z,23.50
2019-03-23T12:49:51.019Z,23.51
2019-03-23T12:51:52.629Z,23.53
2019-03-23T12:53:54.320Z,23.54
2019-03-23T12:55:55.928Z,23.57
2019-03-23T12:57:57.567Z,23.58
2019-03-23T12:59:59.154Z,23.57
2019-03-23T13:02:00.731Z,23.60
2019-03-23T13:04:02.354Z,23.64
2019-03-23T13:06:03.951Z,23.67
2019-03-23T13:08:05.536Z,23.66
2019-03-23T13:10:07.119Z,24.01
2019-03-23T13:12:08.733Z,23.74
2019-03-23T13:14:10.537Z,23.55
2019-03-23T13:16:12.283Z,23.43
2019-03-23T13:18:14.001Z,23.35
2019-03-23T13:20:15.705Z,23.29
2019-03-23T13:22:17.256Z,23.26
2019-03-23T13:24:18.895Z,23.19
2019-03-23T13:26:20.504Z,23.16
2019-03-23T13:28:22.109Z,23.10
2019-03-23T13:30:23.720Z,23.03
2019-03-23T13:32:25.290Z,23.02
2019-03-23T13:34:26.896Z,22.98
2019-03-23T13:36:28.484Z,22.94
2019-03-23T13:38:30.069Z,22.89
2019-03-23T13:40:31.642Z,22.86
2019-03-23T13:42:34.153Z,22.83
2019-03-23T13:44:34.919Z,22.79
2019-03-23T13:46:36.523Z,22.79
2019-03-23T13:48:38.107Z,22.77
2019-03-23T13:50:39.716Z,22.74
2019-03-23T13:52:41.340Z,22.71
2019-03-23T13:54:42.930Z,22.68
2019-03-23T13:56:44.513Z,22.70
2019-03-23T13:58:46.194Z,22.83
2019-03-23T14:00:47.884Z,22.88
2019-03-23T14:02:49.583Z,22.91
2019-03-23T14:04:51.205Z,22.91
2019-03-23T14:06:52.802Z,22.91
2019-03-23T14:08:54.449Z,22.92
2019-03-23T14:10:56.059Z,22.92
2019-03-23T14:12:57.708Z,22.92
2019-03-23T14:14:59.286Z,22.92
2019-03-23T14:17:00.984Z,22.93
2019-03-23T14:19:02.631Z,22.94
2019-03-23T14:21:04.230Z,22.99
2019-03-23T14:23:05.819Z,23.00
2019-03-23T14:25:07.425Z,23.01
2019-03-23T14:27:09.033Z,22.99
2019-03-23T14:29:11.396Z,22.98
2019-03-23T14:31:12.990Z,22.97
2019-03-23T14:33:14.571Z,22.95
2019-03-23T14:35:16.227Z,22.93
2019-03-23T14:37:17.817Z,22.81
2019-03-23T14:39:19.547Z,22.54
2019-03-23T14:41:21.132Z,22.61
2019-03-23T14:43:22.740Z,22.54
2019-03-23T14:45:24.396Z,22.46
2019-03-23T14:47:25.980Z,22.42
2019-03-23T14:49:27.600Z,22.37
2019-03-23T14:51:29.199Z,22.34
2019-03-23T14:53:30.811Z,22.31
2019-03-23T14:55:32.432Z,22.30
2019-03-23T14:57:34.019Z,22.29
2019-03-23T14:59:35.664Z,22.27
2019-03-23T15:01:38.740Z,22.23
2019-03-23T15:03:38.901Z,22.19
2019-03-23T15:05:40.552Z,22.16
2019-03-23T15:07:42.130Z,22.14
2019-03-23T15:09:43.741Z,22.12
2019-03-23T15:11:45.365Z,22.10
2019-03-23T15:13:47.618Z,22.09
2019-03-23T15:15:48.675Z,22.06
2019-03-23T15:17:50.246Z,22.07
2019-03-23T15:19:51.828Z,22.05
2019-03-23T15:21:53.458Z,22.01
2019-03-23T15:23:55.090Z,22.01
2019-03-23T15:25:56.688Z,21.99
2019-03-23T15:27:58.345Z,21.96
2019-03-23T15:30:00.201Z,21.94
2019-03-23T15:32:01.863Z,21.85
2019-03-23T15:34:03.468Z,21.82
2019-03-23T15:36:05.092Z,21.80
2019-03-23T15:38:06.691Z,21.78
2019-03-23T15:40:08.330Z,21.75
2019-03-23T15:42:09.926Z,21.74
2019-03-23T15:44:11.692Z,21.72
2019-03-23T15:46:13.274Z,21.69
2019-03-23T15:48:14.911Z,21.66
2019-03-23T15:50:16.520Z,21.62
2019-03-23T15:52:18.133Z,21.57
2019-03-23T15:54:19.787Z,21.44
2019-03-23T15:56:21.379Z,21.40
2019-03-23T15:58:23.000Z,21.39
2019-03-23T16:00:24.596Z,21.37
2019-03-23T16:02:26.237Z,21.35
2019-03-23T16:04:27.820Z,21.33
2019-03-23T16:06:29.400Z,21.30
2019-03-23T16:08:31.010Z,21.27
2019-03-23T16:10:32.592Z,21.25
2019-03-23T16:12:35.279Z,21.22
2019-03-23T16:14:35.842Z,21.06
2019-03-23T16:16:37.430Z,21.12
2019-03-23T16:18:39.039Z,21.12
2019-03-23T16:20:40.678Z,21.11
2019-03-23T16:22:42.548Z,21.09
2019-03-23T16:24:44.240Z,21.08
2019-03-23T16:26:45.827Z,21.08
2019-03-23T16:28:47.402Z,20.99
2019-03-23T16:30:49.012Z,20.78
2019-03-23T16:32:50.632Z,21.04
2019-03-23T16:34:52.221Z,21.14
2019-03-23T16:36:53.828Z,21.54
2019-03-23T16:38:55.432Z,22.18
2019-03-23T16:40:57.024Z,22.40
2019-03-23T16:42:58.608Z,22.56
2019-03-23T16:45:00.368Z,22.64
2019-03-23T16:47:01.843Z,22.70
2019-03-23T16:49:03.479Z,22.72
2019-03-23T16:51:05.086Z,22.82
2019-03-23T16:53:06.671Z,22.92
2019-03-23T16:55:08.256Z,23.00
2019-03-23T16:57:09.829Z,23.01
2019-03-23T16:59:11.467Z,23.14
2019-03-23T17:01:13.057Z,23.24
2019-03-23T17:03:14.696Z,23.21
2019-03-23T17:05:16.283Z,23.28
2019-03-23T17:07:17.883Z,23.31
2019-03-23T17:09:19.528Z,23.26
2019-03-23T17:11:21.136Z,23.26
2019-03-23T17:13:22.788Z,23.22
2019-03-23T17:15:24.395Z,23.22
2019-03-23T17:17:26.000Z,23.13
2019-03-23T17:19:27.630Z,23.17
2019-03-23T17:21:29.214Z,23.14
2019-03-23T17:23:30.799Z,23.26
2019-03-23T17:25:32.421Z,23.42
2019-03-23T17:27:34.004Z,23.49
2019-03-23T17:29:35.643Z,23.71
2019-03-23T17:31:37.229Z,23.63
2019-03-23T17:33:38.887Z,23.53
2019-03-23T17:35:40.473Z,23.53
2019-03-23T17:37:42.058Z,23.46
2019-03-23T17:39:43.703Z,23.49
2019-03-23T17:41:45.286Z,23.43
2019-03-23T17:43:46.888Z,23.56
2019-03-23T17:45:48.477Z,23.54
2019-03-23T17:47:50.059Z,23.55
2019-03-23T17:49:51.666Z,23.52
2019-03-23T17:51:55.398Z,23.45
2019-03-23T17:53:58.824Z,23.50
2019-03-23T17:55:56.628Z,23.55
2019-03-23T17:57:58.244Z,23.58
2019-03-23T17:59:59.831Z,23.62
2019-03-23T18:02:01.406Z,23.59
2019-03-23T18:04:03.027Z,23.40
2019-03-23T18:06:04.635Z,23.00
2019-03-23T18:08:06.273Z,22.79
2019-03-23T18:10:07.875Z,22.62
2019-03-23T18:12:09.463Z,22.60
2019-03-23T18:14:11.215Z,22.58
2019-03-23T18:16:12.801Z,22.56
2019-03-23T18:18:14.408Z,22.53
2019-03-23T18:20:16.016Z,22.50
2019-03-23T18:22:17.604Z,22.48
2019-03-23T18:24:19.198Z,22.43
2019-03-23T18:26:20.808Z,22.40
2019-03-23T18:28:22.405Z,22.39
2019-03-23T18:30:24.050Z,22.39
2019-03-23T18:32:25.647Z,22.38
2019-03-23T18:34:27.281Z,22.39
2019-03-23T18:36:28.863Z,22.39
2019-03-23T18:38:30.438Z,22.38
2019-03-23T18:40:32.048Z,22.41
2019-03-23T18:42:33.705Z,22.42
2019-03-23T18:44:35.469Z,22.40
2019-03-23T18:46:37.080Z,22.39
2019-03-23T18:48:38.709Z,22.36
2019-03-23T18:50:42.520Z,22.36
2019-03-23T18:52:41.959Z,22.34
2019-03-23T18:54:43.575Z,22.32
2019-03-23T18:56:45.161Z,22.32
2019-03-23T18:58:46.795Z,22.32
2019-03-23T19:00:48.411Z,22.27
2019-03-23T19:02:50.048Z,22.30
2019-03-23T19:04:51.626Z,22.35
2019-03-23T19:06:54.061Z,22.36
2019-03-23T19:08:55.633Z,22.37
2019-03-23T19:10:57.213Z,22.38
2019-03-23T19:12:58.813Z,22.39
2019-03-23T19:15:00.455Z,22.39
2019-03-23T19:17:02.125Z,22.38
2019-03-23T19:19:03.708Z,22.34
2019-03-23T19:21:05.303Z,22.08
2019-03-23T19:23:06.892Z,22.33
2019-03-23T19:25:17.023Z,22.32
2019-03-23T19:27:10.152Z,22.30
2019-03-23T19:29:11.755Z,22.28
2019-03-23T19:31:13.342Z,22.26
2019-03-23T19:33:14.948Z,22.25
2019-03-23T19:35:16.553Z,21.99
2019-03-23T19:37:18.145Z,22.26
2019-03-23T19:39:19.728Z,22.27
2019-03-23T19:41:22.996Z,22.28
2019-03-23T19:43:24.603Z,22.17
2019-03-23T19:45:26.518Z,22.29
2019-03-23T19:47:28.280Z,22.25
2019-03-23T19:49:29.880Z,22.26
2019-03-23T19:51:31.561Z,22.26
2019-03-23T19:53:33.139Z,22.25
2019-03-23T19:55:34.758Z,22.26
2019-03-23T19:57:36.344Z,22.27
2019-03-23T19:59:37.956Z,22.23
2019-03-23T20:01:39.560Z,22.35
2019-03-23T20:03:41.149Z,22.43
2019-03-23T20:05:42.787Z,22.32
2019-03-23T20:07:44.381Z,22.53
2019-03-23T20:09:45.959Z,22.56
2019-03-23T20:11:47.605Z,22.59
2019-03-23T20:13:58.445Z,22.60
2019-03-23T20:15:50.860Z,22.57
2019-03-23T20:17:52.452Z,22.63
2019-03-23T20:19:54.064Z,22.66
2019-03-23T20:21:55.638Z,22.63
2019-03-23T20:23:57.293Z,22.62
2019-03-23T20:25:58.961Z,22.58
2019-03-23T20:28:00.646Z,22.95
2019-03-23T20:30:02.276Z,23.27
2019-03-23T20:32:03.894Z,23.36
2019-03-23T20:34:05.493Z,23.41
2019-03-23T20:36:07.106Z,23.41
2019-03-23T20:38:08.712Z,23.44
2019-03-23T20:40:10.316Z,23.46
2019-03-23T20:42:11.908Z,23.48
2019-03-23T20:44:13.506Z,23.43
2019-03-23T20:46:15.092Z,23.40
2019-03-23T20:48:16.684Z,23.40
2019-03-23T20:50:18.272Z,23.40
2019-03-23T20:52:19.909Z,23.46
2019-03-23T20:54:21.481Z,23.52
2019-03-23T20:56:23.112Z,23.56
2019-03-23T20:58:24.715Z,23.38
2019-03-23T21:00:26.367Z,23.55
2019-03-23T21:02:27.980Z,23.54
2019-03-23T21:04:29.591Z,23.53
2019-03-23T21:06:31.203Z,23.40
2019-03-23T21:08:32.816Z,23.43
2019-03-23T21:10:34.413Z,23.59
2019-03-23T21:12:36.038Z,23.66
2019-03-23T21:14:37.659Z,23.65
2019-03-23T21:16:39.251Z,23.65
2019-03-23T21:18:40.866Z,23.68
2019-03-23T21:20:42.519Z,23.62
2019-03-23T21:22:44.135Z,23.55
2019-03-23T21:24:45.707Z,23.53
2019-03-23T21:26:47.333Z,23.56
2019-03-23T21:28:48.931Z,23.64
2019-03-23T21:30:50.511Z,23.57
2019-03-23T21:32:52.151Z,23.51
2019-03-23T21:34:53.734Z,23.46
2019-03-23T21:36:55.356Z,23.44
2019-03-23T21:38:56.936Z,23.42
2019-03-23T21:40:58.736Z,23.49
2019-03-23T21:43:00.306Z,23.47
2019-03-23T21:45:01.877Z,23.44
2019-03-23T21:47:03.523Z,23.39
2019-03-23T21:49:05.135Z,23.31
2019-03-23T21:51:06.710Z,23.37
2019-03-23T21:53:08.345Z,23.35
2019-03-23T21:55:09.937Z,23.31
2019-03-23T21:57:11.575Z,23.35
2019-03-23T21:59:13.160Z,23.33
2019-03-23T22:01:14.743Z,23.46
2019-03-23T22:03:16.379Z,23.42
2019-03-23T22:05:17.964Z,23.12
2019-03-23T22:07:19.587Z,23.38
2019-03-23T22:09:21.172Z,23.38
2019-03-23T22:11:22.779Z,23.34
2019-03-23T22:13:24.419Z,23.21
2019-03-23T22:15:26.059Z,23.16
2019-03-23T22:17:27.654Z,23.14
2019-03-23T22:19:29.244Z,23.22
2019-03-23T22:21:30.852Z,23.22
2019-03-23T22:23:32.464Z,23.26
2019-03-23T22:25:34.071Z,23.24
2019-03-23T22:27:35.727Z,23.25
2019-03-23T22:29:37.307Z,23.14
2019-03-23T22:31:38.889Z,23.05
2019-03-23T22:33:40.472Z,22.97
2019-03-23T22:35:42.063Z,22.91
2019-03-23T22:37:43.714Z,22.88
2019-03-23T22:39:45.290Z,22.85
2019-03-23T22:41:46.891Z,22.80
2019-03-23T22:43:48.499Z,22.78
2019-03-23T22:45:50.110Z,22.77
2019-03-23T22:47:51.724Z,22.74
2019-03-23T22:49:53.362Z,22.75
2019-03-23T22:51:55.915Z,22.77
2019-03-23T22:53:57.521Z,22.73
2019-03-23T22:55:59.094Z,22.74
2019-03-23T22:58:00.695Z,22.72
2019-03-23T23:00:02.307Z,22.69
2019-03-23T23:02:03.888Z,22.70
2019-03-23T23:04:05.472Z,22.69
2019-03-23T23:06:07.066Z,22.70
2019-03-23T23:08:08.666Z,22.69
2019-03-23T23:10:10.252Z,22.71
2019-03-23T23:12:11.836Z,22.75
2019-03-23T23:14:13.446Z,22.75
2019-03-23T23:16:15.059Z,22.77
2019-03-23T23:18:16.673Z,22.81
2019-03-23T23:20:18.330Z,22.59
2019-03-23T23:22:19.920Z,22.41
2019-03-23T23:24:21.494Z,22.39
2019-03-23T23:26:23.116Z,22.52
2019-03-23T23:28:24.695Z,22.45
2019-03-23T23:30:26.281Z,22.43
2019-03-23T23:32:27.900Z,22.38
2019-03-23T23:34:29.504Z,22.31
2019-03-23T23:36:31.155Z,22.24
2019-03-23T23:38:32.768Z,22.21
2019-03-23T23:40:34.343Z,22.18
2019-03-23T23:42:35.971Z,22.18
2019-03-23T23:44:37.541Z,22.16
2019-03-23T23:46:39.184Z,22.11
2019-03-23T23:48:50.868Z,22.08
2019-03-23T23:50:42.424Z,22.04
2019-03-23T23:52:44.072Z,22.00
2019-03-23T23:54:45.677Z,21.97
2019-03-23T23:56:47.285Z,21.92
2019-03-23T23:58:48.917Z,21.89
